createdAt,value
2022-10-25T00:01:52.331Z,5.43
2022-10-25T00:06:50.166Z,2.60
2022-10-25T00:09:18.683Z,3.83
2022-10-25T00:11:48.512Z,3.07
2022-10-25T00:14:19.415Z,3.80
2022-10-25T00:16:47.868Z,6.20
2022-10-25T00:19:16.365Z,2.50
2022-10-25T00:21:44.872Z,6.20
2022-10-25T00:24:13.455Z,3.10
2022-10-25T00:26:42.318Z,4.90
2022-10-25T00:29:12.785Z,3.97
2022-10-25T00:31:41.246Z,4.70
2022-10-25T00:34:09.727Z,4.83
2022-10-25T00:36:38.150Z,4.17
2022-10-25T00:39:06.856Z,5.50
2022-10-25T00:41:36.036Z,4.77
2022-10-25T00:44:23.023Z,2.47
2022-10-25T00:46:53.950Z,3.57
2022-10-25T00:49:23.559Z,6.60
2022-10-25T00:51:54.380Z,3.50
2022-10-25T00:54:25.148Z,4.93
2022-10-25T00:56:54.109Z,3.87
2022-10-25T00:59:24.010Z,3.77
2022-10-25T01:01:54.147Z,6.10
2022-10-25T01:04:24.403Z,7.07
2022-10-25T01:06:53.580Z,4.13
2022-10-25T01:09:23.633Z,4.13
2022-10-25T01:11:52.107Z,5.57
2022-10-25T01:14:20.898Z,7.43
2022-10-25T01:16:55.124Z,6.87
2022-10-25T01:19:37.192Z,6.03
2022-10-25T01:22:07.743Z,5.00
2022-10-25T01:24:54.521Z,4.20
2022-10-25T01:27:40.666Z,6.73
2022-10-25T01:30:12.556Z,4.13
2022-10-25T01:32:46.083Z,3.80
2022-10-25T01:35:21.239Z,7.23
2022-10-25T01:37:57.830Z,5.57
2022-10-25T01:40:30.497Z,7.27
2022-10-25T01:43:02.343Z,7.37
2022-10-25T01:45:32.491Z,7.37
2022-10-25T01:48:06.943Z,6.17
2022-10-25T01:50:37.331Z,7.47
2022-10-25T01:53:05.755Z,5.67
2022-10-25T01:55:36.602Z,6.17
2022-10-25T01:58:08.804Z,4.20
2022-10-25T02:00:41.983Z,5.83
2022-10-25T02:03:18.223Z,5.17
2022-10-25T02:05:55.509Z,7.30
2022-10-25T02:08:30.269Z,8.70
2022-10-25T02:11:03.294Z,6.37
2022-10-25T02:13:34.789Z,7.60
2022-10-25T02:16:05.148Z,8.77
2022-10-25T02:18:36.765Z,7.53
2022-10-25T02:21:07.373Z,7.57
2022-10-25T02:23:36.742Z,9.87
2022-10-25T02:26:06.160Z,8.33
2022-10-25T02:28:35.275Z,10.70
2022-10-25T02:31:03.720Z,10.57
2022-10-25T02:33:32.286Z,9.80
2022-10-25T02:36:08.657Z,9.57
2022-10-25T02:38:37.304Z,11.23
2022-10-25T02:41:06.408Z,9.23
2022-10-25T02:43:35.181Z,9.57
2022-10-25T02:46:07.245Z,11.00
2022-10-25T02:48:35.820Z,9.17
2022-10-25T02:51:04.277Z,14.60
2022-10-25T02:53:34.523Z,13.00
2022-10-25T02:56:03.187Z,12.00
2022-10-25T02:58:31.986Z,11.07
2022-10-25T03:01:00.787Z,10.83
2022-10-25T03:03:29.623Z,15.93
2022-10-25T03:05:58.466Z,11.73
2022-10-25T03:10:58.457Z,11.60
2022-10-25T03:13:26.933Z,13.23
2022-10-25T03:15:55.536Z,12.60
2022-10-25T03:18:24.005Z,15.47
2022-10-25T03:20:52.848Z,11.57
2022-10-25T03:23:21.276Z,12.37
2022-10-25T03:25:54.301Z,13.83
2022-10-25T03:28:24.680Z,11.90
2022-10-25T03:30:53.157Z,16.33
2022-10-25T03:33:21.679Z,12.97
2022-10-25T03:35:51.939Z,15.03
2022-10-25T03:38:20.525Z,10.07
2022-10-25T03:40:49.023Z,10.93
2022-10-25T03:43:17.535Z,10.00
2022-10-25T03:45:47.459Z,11.67
2022-10-25T03:48:16.311Z,11.67
2022-10-25T03:50:44.767Z,9.63
2022-10-25T03:53:13.409Z,11.53
2022-10-25T03:55:41.969Z,8.97
2022-10-25T03:58:10.410Z,8.13
2022-10-25T04:00:39.081Z,10.80
2022-10-25T04:03:08.987Z,11.83
2022-10-25T04:05:37.463Z,10.00
2022-10-25T04:08:06.042Z,7.97
2022-10-25T04:10:34.516Z,10.97
2022-10-25T04:13:02.995Z,14.03
2022-10-25T04:15:31.459Z,9.80
2022-10-25T04:17:59.987Z,9.67
2022-10-25T04:20:29.883Z,11.43
2022-10-25T04:22:58.784Z,11.90
2022-10-25T04:25:27.787Z,11.83
2022-10-25T04:27:56.259Z,11.33
2022-10-25T04:30:24.741Z,10.47
2022-10-25T04:32:53.135Z,12.37
2022-10-25T04:35:21.661Z,9.60
2022-10-25T04:37:52.022Z,10.37
2022-10-25T04:40:22.651Z,9.67
2022-10-25T04:42:53.282Z,10.33
2022-10-25T04:45:21.858Z,8.53
2022-10-25T04:47:50.295Z,8.00
2022-10-25T04:50:18.782Z,9.57
2022-10-25T04:52:47.438Z,9.50
2022-10-25T04:55:17.602Z,7.37
2022-10-25T04:57:46.022Z,9.43
2022-10-25T05:00:14.975Z,9.90
2022-10-25T05:02:43.909Z,10.03
2022-10-25T05:05:13.413Z,11.00
2022-10-25T05:07:41.922Z,12.07
2022-10-25T05:10:10.779Z,11.07
2022-10-25T05:12:40.708Z,11.23
2022-10-25T05:15:09.753Z,12.07
2022-10-25T05:17:38.220Z,10.20
2022-10-25T05:20:07.496Z,13.57
2022-10-25T05:22:35.919Z,11.40
2022-10-25T05:25:04.422Z,11.83
2022-10-25T05:27:32.877Z,13.13
2022-10-25T05:30:02.759Z,9.40
2022-10-25T05:32:31.915Z,11.37
2022-10-25T05:35:00.403Z,11.87
2022-10-25T05:37:28.936Z,10.73
2022-10-25T05:39:57.402Z,9.37
2022-10-25T05:42:25.924Z,15.10
2022-10-25T05:44:55.452Z,8.90
2022-10-25T05:47:25.293Z,14.63
2022-10-25T05:49:53.944Z,12.87
2022-10-25T05:52:22.382Z,10.00
2022-10-25T05:54:50.922Z,7.97
2022-10-25T05:57:20.529Z,11.33
2022-10-25T05:59:49.001Z,12.13
2022-10-25T06:02:17.530Z,8.77
2022-10-25T06:04:51.633Z,15.07
2022-10-25T06:07:20.994Z,11.07
2022-10-25T06:09:49.461Z,14.70
2022-10-25T06:12:17.884Z,12.37
2022-10-25T06:14:46.383Z,11.67
2022-10-25T06:17:14.835Z,14.23
2022-10-25T06:19:43.359Z,12.03
2022-10-25T06:22:13.305Z,11.27
2022-10-25T06:24:41.838Z,10.43
2022-10-25T06:27:11.239Z,12.30
2022-10-25T06:29:39.792Z,13.13
2022-10-25T06:32:08.220Z,11.87
2022-10-25T06:34:36.701Z,11.20
2022-10-25T06:37:05.802Z,11.07
2022-10-25T06:39:35.691Z,11.07
2022-10-25T06:42:04.115Z,13.83
2022-10-25T06:44:32.588Z,11.87
2022-10-25T06:47:17.124Z,12.97
2022-10-25T06:49:46.102Z,8.33
2022-10-25T06:52:14.715Z,10.97
2022-10-25T06:54:44.623Z,12.33
2022-10-25T06:57:13.042Z,12.27
2022-10-25T06:59:41.600Z,11.27
2022-10-25T07:02:11.130Z,9.10
2022-10-25T07:04:39.871Z,10.67
2022-10-25T07:07:08.281Z,13.83
2022-10-25T07:09:36.812Z,12.30
2022-10-25T07:12:12.282Z,8.13
2022-10-25T07:14:41.267Z,9.47
2022-10-25T07:17:09.693Z,11.97
2022-10-25T07:19:38.157Z,12.43
2022-10-25T07:22:06.571Z,10.13
2022-10-25T07:24:35.035Z,8.07
2022-10-25T07:27:03.474Z,8.20
2022-10-25T07:29:33.540Z,11.27
2022-10-25T07:32:01.985Z,11.70
2022-10-25T07:34:30.757Z,9.53
2022-10-25T07:36:59.177Z,8.07
2022-10-25T07:39:27.716Z,9.60
2022-10-25T07:41:56.180Z,8.40
2022-10-25T07:44:25.117Z,11.30
2022-10-25T07:46:55.730Z,11.90
2022-10-25T07:49:24.250Z,9.33
2022-10-25T07:51:52.669Z,11.27
2022-10-25T07:54:21.143Z,10.00
2022-10-25T07:56:49.573Z,10.03
2022-10-25T07:59:18.060Z,11.67
2022-10-25T08:01:46.636Z,8.40
2022-10-25T08:04:16.555Z,12.70
2022-10-25T08:06:45.083Z,14.10
2022-10-25T08:09:14.972Z,9.83
2022-10-25T08:11:55.068Z,9.27
2022-10-25T08:16:52.306Z,8.77
2022-10-25T08:19:22.212Z,8.83
2022-10-25T08:21:50.641Z,9.87
2022-10-25T08:26:48.466Z,8.63
2022-10-25T08:29:17.061Z,6.93
2022-10-25T08:31:46.373Z,8.30
2022-10-25T08:34:14.841Z,10.30
2022-10-25T08:36:44.729Z,10.20
2022-10-25T08:39:13.314Z,7.90
2022-10-25T08:41:50.199Z,7.77
2022-10-25T08:44:20.842Z,7.03
2022-10-25T08:46:54.504Z,8.37
2022-10-25T08:49:26.827Z,8.13
2022-10-25T08:51:58.210Z,8.23
2022-10-25T08:54:29.227Z,9.50
2022-10-25T08:57:17.592Z,7.27
2022-10-25T08:59:47.939Z,7.27
2022-10-25T09:02:19.666Z,7.50
2022-10-25T09:04:48.366Z,9.20
2022-10-25T09:07:30.467Z,9.10
2022-10-25T09:10:03.947Z,6.72
2022-10-25T09:12:37.428Z,9.77
2022-10-25T09:15:08.685Z,9.73
2022-10-25T09:17:38.527Z,8.82
2022-10-25T09:20:07.976Z,10.63
2022-10-25T09:22:44.327Z,7.65
2022-10-25T09:25:17.748Z,8.10
2022-10-25T09:27:52.950Z,8.85
2022-10-25T09:30:21.449Z,5.57
2022-10-25T09:32:51.008Z,8.32
2022-10-25T09:35:20.641Z,6.35
2022-10-25T09:37:51.366Z,6.07
2022-10-25T09:40:21.208Z,8.85
2022-10-25T09:42:51.756Z,7.13
2022-10-25T09:45:23.733Z,8.70
2022-10-25T09:47:54.448Z,4.50
2022-10-25T09:50:26.816Z,9.43
2022-10-25T09:53:00.886Z,5.57
2022-10-25T09:55:34.561Z,6.80
2022-10-25T09:58:03.480Z,7.55
2022-10-25T10:00:32.021Z,8.32
2022-10-25T10:03:01.469Z,5.70
2022-10-25T10:05:30.991Z,8.27
2022-10-25T10:08:00.828Z,5.35
2022-10-25T10:10:34.306Z,6.35
2022-10-25T10:13:05.898Z,5.57
2022-10-25T10:15:38.748Z,6.43
2022-10-25T10:18:27.174Z,8.68
2022-10-25T10:21:03.573Z,6.13
2022-10-25T10:23:34.829Z,5.07
2022-10-25T10:26:04.645Z,7.88
2022-10-25T10:28:33.620Z,6.32
2022-10-25T10:31:02.093Z,6.45
2022-10-25T10:33:33.155Z,7.35
2022-10-25T10:36:16.857Z,7.00
2022-10-25T10:38:47.358Z,9.60
2022-10-25T10:41:17.181Z,5.67
2022-10-25T10:43:45.671Z,9.47
2022-10-25T10:46:16.462Z,5.20
2022-10-25T10:48:46.169Z,5.97
2022-10-25T10:51:38.941Z,9.30
2022-10-25T10:54:16.022Z,6.72
2022-10-25T10:56:44.645Z,7.20
2022-10-25T10:59:27.432Z,9.20
2022-10-25T11:01:56.601Z,8.67
2022-10-25T11:04:26.247Z,6.75
2022-10-25T11:06:55.535Z,7.97
2022-10-25T11:09:26.146Z,6.30
2022-10-25T11:12:08.541Z,5.20
2022-10-25T11:14:37.008Z,5.55
2022-10-25T11:17:08.751Z,7.45
2022-10-25T11:19:51.086Z,5.97
2022-10-25T11:22:30.721Z,10.13
2022-10-25T11:25:08.641Z,8.77
2022-10-25T11:27:44.469Z,4.45
2022-10-25T11:30:15.364Z,4.97
2022-10-25T11:32:52.809Z,7.70
2022-10-25T11:35:30.052Z,4.68
2022-10-25T11:38:01.173Z,6.97
2022-10-25T11:40:31.790Z,4.28
2022-10-25T11:43:06.072Z,8.43
2022-10-25T11:45:38.568Z,4.15
2022-10-25T11:48:15.851Z,5.13
2022-10-25T11:50:49.803Z,6.20
2022-10-25T11:53:26.871Z,6.63
2022-10-25T11:55:58.890Z,7.28
2022-10-25T11:58:35.752Z,2.83
2022-10-25T12:01:08.819Z,5.53
2022-10-25T12:03:44.613Z,5.17
2022-10-25T12:06:17.710Z,3.42
2022-10-25T12:08:53.370Z,4.70
2022-10-25T12:11:26.232Z,5.05
2022-10-25T12:13:56.970Z,4.85
2022-10-25T12:16:25.535Z,4.07
2022-10-25T12:18:58.987Z,4.72
2022-10-25T12:21:28.400Z,4.13
2022-10-25T12:23:57.315Z,5.47
2022-10-25T12:26:30.079Z,3.08
2022-10-25T12:29:00.239Z,4.90
2022-10-25T12:31:29.825Z,3.30
2022-10-25T12:34:01.779Z,6.45
2022-10-25T12:36:33.191Z,5.72
2022-10-25T12:39:02.743Z,6.75
2022-10-25T12:41:34.504Z,3.22
2022-10-25T12:44:17.963Z,4.95
2022-10-25T12:47:02.865Z,4.03
2022-10-25T12:49:52.147Z,2.72
2022-10-25T12:52:25.558Z,3.88
2022-10-25T12:55:22.047Z,4.90
2022-10-25T12:57:57.067Z,4.80
2022-10-25T13:00:25.942Z,4.63
2022-10-25T13:03:10.311Z,3.35
2022-10-25T13:05:56.083Z,6.25
2022-10-25T13:08:25.310Z,5.20
2022-10-25T13:10:58.849Z,6.45
2022-10-25T13:13:30.845Z,10.82
2022-10-25T13:16:00.268Z,12.60
2022-10-25T13:18:41.082Z,9.93
2022-10-25T13:21:10.582Z,7.63
2022-10-25T13:23:49.481Z,4.25
2022-10-25T13:26:18.290Z,2.72
2022-10-25T13:28:49.830Z,3.20
2022-10-25T13:31:46.883Z,2.83
2022-10-25T13:34:31.404Z,3.13
2022-10-25T13:37:00.751Z,3.65
2022-10-25T13:39:31.978Z,2.70
2022-10-25T13:42:04.369Z,4.20
2022-10-25T13:44:34.425Z,3.72
2022-10-25T13:47:02.869Z,2.63
2022-10-25T13:49:33.255Z,5.45
2022-10-25T13:52:05.099Z,2.40
2022-10-25T13:54:40.261Z,5.28
2022-10-25T13:57:28.693Z,4.32
2022-10-25T14:00:02.458Z,5.00
2022-10-25T14:02:31.226Z,1.73
2022-10-25T14:04:59.821Z,4.55
2022-10-25T14:07:47.988Z,5.60
2022-10-25T14:10:26.563Z,4.97
2022-10-25T14:12:57.268Z,2.80
2022-10-25T14:15:32.522Z,3.25
2022-10-25T14:18:01.162Z,4.22
2022-10-25T14:20:31.295Z,3.25
2022-10-25T14:23:01.773Z,3.15
2022-10-25T14:25:33.899Z,2.85
2022-10-25T14:28:06.853Z,4.45
2022-10-25T14:30:38.678Z,5.22
2022-10-25T14:33:07.853Z,3.30
2022-10-25T14:35:37.319Z,6.28
2022-10-25T14:38:14.285Z,3.97
2022-10-25T14:40:42.775Z,4.50
2022-10-25T14:43:15.276Z,4.13
2022-10-25T14:45:56.419Z,4.63
2022-10-25T14:48:24.926Z,3.45
2022-10-25T14:50:53.681Z,3.10
2022-10-25T14:53:22.367Z,3.58
2022-10-25T14:55:55.392Z,2.85
2022-10-25T14:58:25.120Z,3.47
2022-10-25T15:00:56.613Z,6.10
2022-10-25T15:03:25.562Z,4.95
2022-10-25T15:05:54.315Z,5.43
2022-10-25T15:08:25.328Z,4.28
2022-10-25T15:10:56.250Z,3.15
2022-10-25T15:13:28.513Z,2.38
2022-10-25T15:15:59.880Z,2.22
2022-10-25T15:18:34.089Z,5.57
2022-10-25T15:21:06.857Z,5.93
2022-10-25T15:23:35.614Z,2.67
2022-10-25T15:26:26.557Z,3.65
2022-10-25T15:28:56.336Z,5.15
2022-10-25T15:31:26.973Z,2.63
2022-10-25T15:33:59.828Z,4.50
2022-10-25T15:36:29.154Z,4.30
2022-10-25T15:39:08.227Z,6.15
2022-10-25T15:41:40.063Z,5.97
2022-10-25T15:44:08.588Z,7.38
2022-10-25T15:46:38.436Z,6.10
2022-10-25T15:49:08.594Z,7.57
2022-10-25T15:51:39.644Z,4.00
2022-10-25T15:54:11.751Z,4.43
2022-10-25T15:56:40.268Z,5.50
2022-10-25T15:59:08.865Z,4.33
2022-10-25T16:01:39.173Z,6.87
2022-10-25T16:04:08.261Z,5.30
2022-10-25T16:06:36.890Z,5.90
2022-10-25T16:09:05.526Z,5.40
2022-10-25T16:11:37.774Z,5.03
2022-10-25T16:14:06.771Z,5.57
2022-10-25T16:16:40.328Z,6.27
2022-10-25T16:19:14.309Z,5.37
2022-10-25T16:21:43.200Z,8.07
2022-10-25T16:24:11.816Z,6.33
2022-10-25T16:26:42.908Z,4.63
2022-10-25T16:29:15.254Z,5.13
2022-10-25T16:31:43.958Z,6.97
2022-10-25T16:34:15.566Z,5.17
2022-10-25T16:36:44.017Z,15.23
2022-10-25T16:39:12.570Z,18.07
2022-10-25T16:41:41.741Z,9.97
2022-10-25T16:44:12.000Z,12.37
2022-10-25T16:46:40.498Z,5.70
2022-10-25T16:49:09.782Z,10.97
2022-10-25T16:51:39.922Z,6.40
2022-10-25T16:54:08.644Z,8.37
2022-10-25T16:56:37.082Z,5.00
2022-10-25T16:59:05.551Z,5.43
2022-10-25T17:01:38.948Z,6.97
2022-10-25T17:04:11.589Z,6.07
2022-10-25T17:06:42.333Z,5.93
2022-10-25T17:09:11.424Z,8.80
2022-10-25T17:11:39.893Z,5.77
2022-10-25T17:14:09.767Z,9.93
2022-10-25T17:16:38.688Z,7.00
2022-10-25T17:19:07.293Z,7.27
2022-10-25T17:21:35.887Z,7.40
2022-10-25T17:24:09.967Z,12.33
2022-10-25T17:26:39.107Z,8.13
2022-10-25T17:29:07.702Z,9.23
2022-10-25T17:31:36.173Z,7.77
2022-10-25T17:34:05.202Z,6.67
2022-10-25T17:36:34.698Z,6.43
2022-10-25T17:39:03.150Z,8.70
2022-10-25T17:41:32.987Z,10.93
2022-10-25T17:44:01.420Z,12.57
2022-10-25T17:46:30.889Z,9.20
2022-10-25T17:49:03.147Z,8.57
2022-10-25T17:51:32.261Z,7.23
2022-10-25T17:54:00.781Z,8.73
2022-10-25T17:56:34.071Z,65.93
2022-10-25T17:59:04.445Z,13.13
2022-10-25T18:01:35.921Z,10.23
2022-10-25T18:04:04.583Z,8.87
2022-10-25T18:06:33.079Z,7.40
2022-10-25T18:09:03.874Z,8.53
2022-10-25T18:11:33.832Z,10.33
2022-10-25T18:14:03.101Z,9.23
2022-10-25T18:16:32.223Z,11.17
2022-10-25T18:19:01.385Z,11.33
2022-10-25T18:21:30.646Z,9.70
2022-10-25T18:23:59.874Z,9.47
2022-10-25T18:26:28.802Z,7.87
2022-10-25T18:28:58.887Z,11.13
2022-10-25T18:31:28.083Z,10.37
2022-10-25T18:33:58.819Z,10.43
2022-10-25T18:36:27.725Z,8.37
2022-10-25T18:38:56.390Z,11.40
2022-10-25T18:41:25.475Z,12.30
2022-10-25T18:43:54.889Z,26.07
2022-10-25T18:46:25.496Z,9.93
2022-10-25T18:48:54.316Z,11.47
2022-10-25T18:51:24.267Z,10.67
2022-10-25T18:53:55.072Z,9.97
2022-10-25T18:56:23.636Z,17.43
2022-10-25T18:58:56.731Z,11.13
2022-10-25T19:01:28.116Z,12.03
2022-10-25T19:03:58.225Z,10.40
2022-10-25T19:06:27.076Z,15.57
2022-10-25T19:08:55.864Z,14.77
2022-10-25T19:11:24.549Z,11.80
2022-10-25T19:13:54.979Z,14.67
2022-10-25T19:16:23.608Z,12.80
2022-10-25T19:18:54.263Z,14.73
2022-10-25T19:21:22.727Z,24.60
2022-10-25T19:23:54.151Z,18.50
2022-10-25T19:26:23.731Z,18.10
2022-10-25T19:28:57.389Z,56.63
2022-10-25T19:31:25.934Z,38.63
2022-10-25T19:33:58.447Z,29.90
2022-10-25T19:36:27.022Z,17.00
2022-10-25T19:38:55.446Z,40.77
2022-10-25T19:41:25.709Z,74.03
2022-10-25T19:43:57.603Z,51.83
2022-10-25T19:46:26.384Z,15.73
2022-10-25T19:48:57.043Z,14.63
2022-10-25T19:51:25.657Z,17.13
2022-10-25T19:53:54.242Z,15.33
2022-10-25T19:56:25.985Z,14.93
2022-10-25T19:58:54.544Z,12.20
2022-10-25T20:01:24.382Z,20.60
2022-10-25T20:03:54.651Z,13.73
2022-10-25T20:06:25.753Z,12.63
2022-10-25T20:08:54.437Z,23.27
2022-10-25T20:11:23.996Z,14.30
2022-10-25T20:13:54.755Z,15.10
2022-10-25T20:16:23.646Z,13.97
2022-10-25T20:18:54.366Z,14.60
2022-10-25T20:21:24.773Z,18.57
2022-10-25T20:23:55.988Z,19.80
2022-10-25T20:26:25.699Z,19.90
2022-10-25T20:28:54.327Z,18.87
2022-10-25T20:31:23.561Z,19.47
2022-10-25T20:33:52.307Z,18.70
2022-10-25T20:36:20.832Z,21.43
2022-10-25T20:38:50.714Z,23.53
2022-10-25T20:41:20.366Z,27.50
2022-10-25T20:43:50.692Z,17.90
2022-10-25T20:46:19.706Z,21.93
2022-10-25T20:48:48.226Z,21.20
2022-10-25T20:51:17.847Z,21.13
2022-10-25T20:53:46.921Z,23.33
2022-10-25T20:56:17.034Z,20.10
2022-10-25T20:58:45.681Z,19.97
2022-10-25T21:01:14.420Z,18.57
2022-10-25T21:03:43.024Z,39.10
2022-10-25T21:06:13.015Z,20.37
2022-10-25T21:08:41.693Z,20.97
2022-10-25T21:11:11.956Z,17.40
2022-10-25T21:13:42.058Z,18.40
2022-10-25T21:16:11.623Z,16.33
2022-10-25T21:18:40.289Z,16.73
2022-10-25T21:21:09.841Z,17.20
2022-10-25T21:23:38.459Z,17.80
2022-10-25T21:26:08.016Z,20.00
2022-10-25T21:28:37.154Z,19.97
2022-10-25T21:31:07.963Z,19.30
2022-10-25T21:33:36.404Z,21.67
2022-10-25T21:36:05.653Z,19.70
2022-10-25T21:38:34.079Z,18.87
2022-10-25T21:41:09.417Z,23.37
2022-10-25T21:43:37.969Z,18.70
2022-10-25T21:46:08.516Z,21.30
2022-10-25T21:48:37.043Z,18.13
2022-10-25T21:51:05.881Z,17.70
2022-10-25T21:53:34.585Z,60.87
2022-10-25T21:56:07.071Z,59.63
2022-10-25T21:58:35.712Z,77.93
2022-10-25T22:01:04.263Z,40.53
2022-10-25T22:03:34.176Z,17.93
2022-10-25T22:06:02.692Z,18.40
2022-10-25T22:08:31.096Z,14.53
2022-10-25T22:13:33.367Z,14.50
2022-10-25T22:16:03.034Z,13.33
2022-10-25T22:18:31.458Z,13.93
2022-10-25T22:21:02.170Z,15.20
2022-10-25T22:23:31.348Z,19.70
2022-10-25T22:26:01.660Z,14.40
2022-10-25T22:28:30.188Z,12.67
2022-10-25T22:30:59.124Z,12.93
2022-10-25T22:33:27.572Z,15.87
2022-10-25T22:35:56.066Z,16.00
2022-10-25T22:38:25.901Z,13.93
2022-10-25T22:40:58.313Z,13.47
2022-10-25T22:43:26.764Z,12.90
2022-10-25T22:45:55.346Z,13.70
2022-10-25T22:48:24.355Z,16.80
2022-10-25T22:50:53.472Z,13.30
2022-10-25T22:53:22.620Z,12.30
2022-10-25T22:55:59.780Z,13.93
2022-10-25T22:58:29.139Z,13.13
2022-10-25T23:01:00.522Z,20.23
2022-10-25T23:03:28.963Z,15.93
2022-10-25T23:06:00.359Z,12.03
2022-10-25T23:08:29.169Z,13.10
2022-10-25T23:11:03.507Z,10.30
2022-10-25T23:13:33.837Z,11.87
2022-10-25T23:16:02.572Z,14.40
2022-10-25T23:18:31.241Z,11.50
2022-10-25T23:21:00.808Z,14.07
2022-10-25T23:23:30.247Z,13.00
2022-10-25T23:26:01.483Z,12.03
2022-10-25T23:28:33.523Z,32.50
2022-10-25T23:31:05.517Z,11.77
2022-10-25T23:33:34.386Z,13.60
2022-10-25T23:36:03.796Z,13.77
2022-10-25T23:38:32.470Z,12.53
2022-10-25T23:41:00.951Z,11.53
2022-10-25T23:43:29.717Z,12.40
2022-10-25T23:45:59.670Z,14.60
2022-10-25T23:48:28.388Z,18.07
2022-10-25T23:50:58.234Z,17.70
2022-10-25T23:53:27.095Z,18.77
2022-10-25T23:55:55.622Z,13.37
2022-10-25T23:58:24.392Z,12.57
